createdAt,value
2023-03-03T00:00:35.204Z,15.30
2023-03-03T00:03:09.397Z,18.73
2023-03-03T00:05:38.396Z,15.93
2023-03-03T00:08:08.115Z,16.17
2023-03-03T00:10:36.409Z,16.33
2023-03-03T00:13:04.894Z,16.33
2023-03-03T00:15:33.142Z,16.27
2023-03-03T00:18:01.694Z,16.43
2023-03-03T00:20:37.872Z,15.70
2023-03-03T00:23:23.720Z,14.33
2023-03-03T00:25:54.637Z,13.90
2023-03-03T00:28:31.079Z,14.53
2023-03-03T00:31:02.031Z,12.67
2023-03-03T00:33:34.639Z,12.50
2023-03-03T00:36:28.602Z,13.13
2023-03-03T00:39:18.634Z,13.37
2023-03-03T00:41:46.896Z,14.03
2023-03-03T00:44:41.592Z,14.17
2023-03-03T00:47:32.748Z,13.43
2023-03-03T00:50:32.521Z,12.20
2023-03-03T00:53:05.603Z,12.77
2023-03-03T00:55:36.877Z,13.30
2023-03-03T00:58:05.794Z,12.43
2023-03-03T01:00:34.472Z,13.93
2023-03-03T01:03:07.156Z,13.30
2023-03-03T01:05:36.061Z,12.57
2023-03-03T01:08:04.945Z,12.33
2023-03-03T01:10:40.267Z,12.67
2023-03-03T01:13:09.470Z,11.87
2023-03-03T01:15:39.048Z,12.60
2023-03-03T01:18:08.677Z,12.73
2023-03-03T01:20:36.847Z,13.70
2023-03-03T01:23:05.258Z,12.70
2023-03-03T01:25:35.138Z,12.07
2023-03-03T01:28:03.526Z,12.53
2023-03-03T01:30:32.412Z,12.37
2023-03-03T01:33:00.561Z,12.67
2023-03-03T01:35:29.903Z,11.33
2023-03-03T01:37:59.178Z,12.63
2023-03-03T01:40:31.034Z,12.20
2023-03-03T01:43:02.865Z,11.00
2023-03-03T01:45:39.235Z,12.07
2023-03-03T01:48:15.137Z,11.37
2023-03-03T01:50:51.161Z,11.17
2023-03-03T01:53:24.015Z,11.97
2023-03-03T01:55:54.975Z,11.63
2023-03-03T01:58:31.247Z,11.67
2023-03-03T02:01:04.785Z,10.50
2023-03-03T02:03:34.907Z,10.97
2023-03-03T02:06:09.673Z,11.17
2023-03-03T02:08:47.178Z,11.00
2023-03-03T02:11:16.130Z,11.50
2023-03-03T02:13:45.641Z,11.70
2023-03-03T02:16:14.158Z,10.87
2023-03-03T02:18:42.637Z,10.70
2023-03-03T02:21:15.314Z,11.33
2023-03-03T02:23:54.314Z,12.07
2023-03-03T02:26:28.078Z,10.60
2023-03-03T02:28:56.260Z,11.80
2023-03-03T02:31:27.597Z,11.33
2023-03-03T02:33:56.770Z,10.10
2023-03-03T02:36:29.524Z,10.23
2023-03-03T02:39:06.642Z,9.07
2023-03-03T02:41:44.621Z,9.20
2023-03-03T02:44:15.991Z,8.30
2023-03-03T02:46:46.297Z,7.97
2023-03-03T02:49:17.590Z,8.40
2023-03-03T02:51:46.404Z,8.20
2023-03-03T02:54:18.020Z,7.97
2023-03-03T02:56:48.104Z,7.47
2023-03-03T02:59:16.876Z,8.63
2023-03-03T03:01:46.060Z,8.37
2023-03-03T03:04:17.537Z,8.30
2023-03-03T03:06:46.470Z,8.00
2023-03-03T03:09:16.651Z,8.80
2023-03-03T03:11:45.406Z,8.43
2023-03-03T03:14:15.900Z,8.77
2023-03-03T03:16:44.191Z,8.33
2023-03-03T03:19:12.631Z,7.83
2023-03-03T03:21:40.871Z,7.87
2023-03-03T03:24:09.434Z,8.00
2023-03-03T03:26:37.591Z,7.93
2023-03-03T03:29:06.190Z,8.10
2023-03-03T03:31:36.473Z,7.33
2023-03-03T03:34:04.584Z,7.60
2023-03-03T03:36:32.699Z,8.20
2023-03-03T03:39:02.766Z,7.90
2023-03-03T03:41:30.908Z,8.00
2023-03-03T03:43:59.004Z,7.40
2023-03-03T03:46:27.170Z,6.93
2023-03-03T03:48:56.598Z,6.53
2023-03-03T03:51:24.690Z,6.77
2023-03-03T03:53:52.874Z,6.13
2023-03-03T03:56:21.004Z,6.97
2023-03-03T03:58:49.130Z,6.60
2023-03-03T04:01:17.515Z,6.90
2023-03-03T04:03:45.610Z,6.83
2023-03-03T04:06:15.097Z,6.77
2023-03-03T04:08:43.282Z,6.50
2023-03-03T04:11:11.524Z,7.57
2023-03-03T04:13:39.661Z,7.00
2023-03-03T04:16:08.182Z,6.20
2023-03-03T04:18:36.342Z,6.47
2023-03-03T04:21:04.695Z,6.97
2023-03-03T04:23:34.220Z,5.67
2023-03-03T04:26:02.364Z,6.63
2023-03-03T04:28:30.518Z,6.03
2023-03-03T04:30:58.773Z,5.53
2023-03-03T04:33:27.229Z,6.17
2023-03-03T04:35:55.405Z,6.53
2023-03-03T04:38:23.564Z,6.83
2023-03-03T04:40:53.115Z,6.27
2023-03-03T04:43:21.598Z,6.17
2023-03-03T04:45:50.016Z,6.17
2023-03-03T04:48:18.133Z,5.90
2023-03-03T04:50:46.581Z,5.87
2023-03-03T04:53:14.709Z,6.13
2023-03-03T04:55:43.178Z,5.50
2023-03-03T04:58:12.803Z,6.60
2023-03-03T05:00:40.931Z,5.80
2023-03-03T05:03:11.536Z,6.03
2023-03-03T05:05:39.686Z,5.90
2023-03-03T05:08:08.206Z,5.27
2023-03-03T05:10:36.862Z,5.70
2023-03-03T05:13:05.952Z,5.73
2023-03-03T05:15:35.466Z,5.47
2023-03-03T05:18:03.747Z,5.73
2023-03-03T05:20:31.850Z,5.97
2023-03-03T05:23:01.572Z,5.50
2023-03-03T05:25:29.702Z,5.67
2023-03-03T05:27:57.826Z,6.00
2023-03-03T05:30:25.953Z,6.07
2023-03-03T05:32:55.390Z,5.63
2023-03-03T05:35:23.584Z,5.43
2023-03-03T05:37:52.764Z,6.00
2023-03-03T05:40:20.924Z,5.53
2023-03-03T05:42:49.126Z,5.77
2023-03-03T05:45:20.371Z,5.97
2023-03-03T05:47:48.918Z,5.27
2023-03-03T05:50:18.844Z,5.63
2023-03-03T05:52:49.590Z,5.97
2023-03-03T05:55:18.696Z,5.93
2023-03-03T05:57:47.137Z,6.47
2023-03-03T06:00:17.681Z,5.97
2023-03-03T06:02:45.817Z,6.43
2023-03-03T06:05:14.113Z,6.33
2023-03-03T06:07:43.780Z,6.93
2023-03-03T06:10:13.126Z,6.13
2023-03-03T06:12:42.151Z,6.07
2023-03-03T06:15:11.890Z,6.33
2023-03-03T06:17:40.398Z,5.97
2023-03-03T06:20:10.574Z,5.80
2023-03-03T06:22:38.736Z,6.13
2023-03-03T06:25:09.537Z,6.10
2023-03-03T06:27:37.962Z,5.70
2023-03-03T06:30:08.106Z,6.50
2023-03-03T06:32:36.384Z,6.90
2023-03-03T06:35:04.902Z,6.60
2023-03-03T06:37:33.005Z,6.70
2023-03-03T06:40:01.152Z,6.13
2023-03-03T06:42:30.613Z,6.50
2023-03-03T06:44:58.784Z,6.27
2023-03-03T06:47:27.140Z,5.87
2023-03-03T06:49:55.307Z,6.63
2023-03-03T06:52:27.731Z,7.27
2023-03-03T06:54:59.587Z,5.93
2023-03-03T06:57:31.604Z,6.10
2023-03-03T07:00:17.078Z,6.63
2023-03-03T07:02:45.254Z,6.50
2023-03-03T07:05:18.218Z,6.13
2023-03-03T07:07:46.553Z,6.03
2023-03-03T07:10:25.145Z,6.43
2023-03-03T07:12:55.464Z,6.77
2023-03-03T07:15:29.688Z,6.90
2023-03-03T07:17:59.670Z,6.67
2023-03-03T07:20:39.133Z,6.10
2023-03-03T07:23:22.284Z,6.83
2023-03-03T07:25:50.501Z,6.30
2023-03-03T07:28:25.685Z,6.70
2023-03-03T07:30:55.610Z,6.67
2023-03-03T07:33:29.462Z,5.83
2023-03-03T07:36:00.350Z,6.40
2023-03-03T07:38:38.810Z,5.63
2023-03-03T07:41:15.610Z,5.60
2023-03-03T07:43:54.480Z,6.10
2023-03-03T07:46:31.981Z,6.80
2023-03-03T07:49:01.520Z,5.90
2023-03-03T07:51:39.565Z,5.70
2023-03-03T07:54:31.083Z,6.13
2023-03-03T07:57:09.036Z,6.53
2023-03-03T07:59:42.786Z,6.73
2023-03-03T08:02:38.792Z,6.60
2023-03-03T08:05:37.137Z,7.03
2023-03-03T08:08:29.348Z,6.57
2023-03-03T08:11:00.161Z,6.47
2023-03-03T08:13:38.028Z,6.53
2023-03-03T08:16:37.019Z,6.67
2023-03-03T08:19:07.986Z,5.90
2023-03-03T08:21:37.641Z,5.70
2023-03-03T08:24:06.656Z,5.80
2023-03-03T08:26:34.771Z,6.00
2023-03-03T08:29:03.229Z,6.27
2023-03-03T08:31:41.316Z,6.23
2023-03-03T08:34:10.294Z,7.27
2023-03-03T08:36:38.451Z,7.60
2023-03-03T08:39:07.185Z,7.13
2023-03-03T08:41:35.321Z,7.57
2023-03-03T08:44:03.448Z,8.17
2023-03-03T08:46:33.398Z,8.20
2023-03-03T08:49:01.545Z,7.20
2023-03-03T08:51:29.717Z,8.20
2023-03-03T08:53:57.935Z,6.43
2023-03-03T08:56:26.097Z,6.83
2023-03-03T08:59:02.070Z,6.70
2023-03-03T09:01:32.951Z,6.50
2023-03-03T09:04:01.369Z,6.70
2023-03-03T09:06:29.599Z,6.50
2023-03-03T09:08:57.857Z,7.27
2023-03-03T09:11:29.929Z,7.57
2023-03-03T09:14:11.010Z,7.87
2023-03-03T09:16:48.327Z,7.53
2023-03-03T09:19:29.482Z,8.07
2023-03-03T09:22:03.946Z,8.27
2023-03-03T09:24:37.157Z,8.30
2023-03-03T09:27:23.195Z,8.17
2023-03-03T09:29:51.403Z,7.40
2023-03-03T09:32:35.267Z,7.37
2023-03-03T09:35:38.564Z,6.80
2023-03-03T09:38:26.328Z,7.63
2023-03-03T09:41:37.779Z,7.57
2023-03-03T09:44:39.039Z,7.40
2023-03-03T09:47:28.891Z,7.03
2023-03-03T09:50:12.873Z,7.37
2023-03-03T09:52:53.691Z,6.40
2023-03-03T09:55:38.705Z,6.17
2023-03-03T09:58:32.740Z,6.27
2023-03-03T10:01:33.866Z,6.60
2023-03-03T10:04:24.094Z,6.83
2023-03-03T10:07:13.692Z,7.40
2023-03-03T10:10:04.333Z,6.87
2023-03-03T10:12:47.601Z,7.03
2023-03-03T10:15:39.335Z,7.03
2023-03-03T10:18:24.384Z,6.37
2023-03-03T10:21:09.756Z,7.37
2023-03-03T10:23:57.626Z,7.60
2023-03-03T10:27:09.881Z,8.10
2023-03-03T10:29:49.456Z,7.47
2023-03-03T10:32:51.773Z,7.30
2023-03-03T10:36:06.714Z,7.83
2023-03-03T10:38:57.896Z,8.87
2023-03-03T10:41:49.896Z,8.10
2023-03-03T10:45:02.249Z,7.67
2023-03-03T10:47:51.573Z,7.53
2023-03-03T10:50:31.705Z,7.20
2023-03-03T10:53:22.111Z,7.43
2023-03-03T10:56:19.238Z,7.50
2023-03-03T10:59:02.947Z,7.57
2023-03-03T11:01:46.261Z,7.63
2023-03-03T11:04:51.630Z,8.20
2023-03-03T11:07:30.094Z,8.40
2023-03-03T11:10:19.710Z,8.93
2023-03-03T11:13:03.266Z,9.20
2023-03-03T11:15:45.858Z,10.27
2023-03-03T11:18:36.382Z,9.47
2023-03-03T11:21:16.944Z,9.27
2023-03-03T11:24:03.095Z,9.00
2023-03-03T11:26:57.681Z,8.90
2023-03-03T11:29:49.586Z,9.97
2023-03-03T11:32:29.831Z,9.03
2023-03-03T11:35:20.560Z,9.50
2023-03-03T11:38:08.830Z,8.27
2023-03-03T11:40:49.948Z,8.57
2023-03-03T11:43:36.737Z,8.97
2023-03-03T11:46:12.768Z,7.77
2023-03-03T11:48:54.978Z,8.60
2023-03-03T11:51:41.642Z,8.20
2023-03-03T11:54:19.508Z,8.13
2023-03-03T11:56:49.782Z,8.77
2023-03-03T11:59:52.114Z,8.33
2023-03-03T12:03:14.145Z,8.37
2023-03-03T12:05:57.946Z,8.27
2023-03-03T12:08:45.730Z,7.80
2023-03-03T12:11:23.782Z,7.50
2023-03-03T12:14:02.955Z,7.13
2023-03-03T12:16:48.619Z,7.23
2023-03-03T12:19:37.274Z,7.27
2023-03-03T12:22:33.488Z,6.70
2023-03-03T12:25:34.926Z,7.10
2023-03-03T12:28:12.893Z,6.73
2023-03-03T12:31:11.040Z,7.10
2023-03-03T12:33:54.042Z,7.40
2023-03-03T12:36:40.710Z,7.57
2023-03-03T12:39:33.722Z,8.13
2023-03-03T12:42:13.171Z,7.97
2023-03-03T12:44:50.149Z,7.73
2023-03-03T12:47:28.806Z,8.53
2023-03-03T12:50:25.352Z,8.97
2023-03-03T12:53:10.870Z,9.70
2023-03-03T12:55:53.742Z,9.70
2023-03-03T12:58:38.366Z,9.47
2023-03-03T13:01:28.466Z,10.23
2023-03-03T13:04:09.576Z,10.03
2023-03-03T13:06:48.643Z,9.97
2023-03-03T13:09:32.900Z,10.73
2023-03-03T13:12:29.148Z,10.43
2023-03-03T13:15:04.390Z,11.50
2023-03-03T13:17:43.837Z,11.30
2023-03-03T13:20:27.399Z,11.57
2023-03-03T13:23:08.381Z,12.97
2023-03-03T13:25:54.175Z,12.17
2023-03-03T13:28:36.873Z,12.37
2023-03-03T13:31:13.047Z,11.10
2023-03-03T13:33:48.867Z,11.60
2023-03-03T13:36:19.729Z,11.97
2023-03-03T13:38:54.567Z,11.83
2023-03-03T13:41:32.142Z,12.93
2023-03-03T13:44:10.307Z,12.23
2023-03-03T13:46:48.283Z,12.67
2023-03-03T13:49:42.441Z,12.23
2023-03-03T13:52:13.412Z,12.63
2023-03-03T13:55:10.857Z,10.90
2023-03-03T13:57:58.623Z,10.27
2023-03-03T14:00:47.806Z,10.63
2023-03-03T14:03:50.782Z,10.07
2023-03-03T14:06:22.878Z,10.17
2023-03-03T14:09:23.443Z,9.83
2023-03-03T14:12:04.977Z,10.03
2023-03-03T14:14:48.848Z,10.07
2023-03-03T14:17:30.562Z,10.50
2023-03-03T14:20:19.991Z,9.93
2023-03-03T14:22:55.634Z,9.83
2023-03-03T14:25:24.593Z,10.80
2023-03-03T14:28:06.150Z,10.73
2023-03-03T14:30:40.566Z,10.37
2023-03-03T14:33:26.129Z,10.60
2023-03-03T14:36:11.763Z,11.00
2023-03-03T14:38:51.632Z,10.67
2023-03-03T14:41:37.594Z,10.20
2023-03-03T14:44:27.667Z,11.83
2023-03-03T14:47:24.234Z,10.00
2023-03-03T14:49:54.614Z,9.20
2023-03-03T14:52:27.031Z,9.70
2023-03-03T14:54:58.173Z,9.77
2023-03-03T14:57:46.457Z,9.90
2023-03-03T15:00:36.513Z,8.57
2023-03-03T15:03:23.286Z,8.57
2023-03-03T15:05:53.191Z,8.37
2023-03-03T15:08:33.304Z,9.53
2023-03-03T15:11:20.458Z,8.53
2023-03-03T15:13:48.664Z,8.13
2023-03-03T15:16:22.682Z,9.10
2023-03-03T15:19:38.875Z,9.27
2023-03-03T15:22:20.939Z,8.97
2023-03-03T15:25:03.312Z,7.73
2023-03-03T15:27:40.628Z,9.47
2023-03-03T15:30:24.644Z,9.70
2023-03-03T15:33:01.111Z,9.37
2023-03-03T15:35:53.792Z,8.60
2023-03-03T15:38:35.881Z,8.77
2023-03-03T15:41:20.297Z,8.77
2023-03-03T15:44:04.094Z,8.73
2023-03-03T15:46:50.052Z,8.17
2023-03-03T15:49:46.988Z,8.20
2023-03-03T15:52:39.405Z,7.73
2023-03-03T15:55:38.334Z,8.97
2023-03-03T15:58:33.167Z,8.27
2023-03-03T16:01:16.125Z,8.40
2023-03-03T16:03:50.694Z,8.37
2023-03-03T16:06:34.508Z,7.70
2023-03-03T16:09:20.926Z,8.27
2023-03-03T16:12:01.061Z,8.07
2023-03-03T16:15:06.264Z,7.40
2023-03-03T16:17:47.747Z,7.20
2023-03-03T16:20:24.266Z,7.83
2023-03-03T16:23:18.739Z,7.23
2023-03-03T16:26:05.753Z,7.13
2023-03-03T16:28:53.348Z,6.93
2023-03-03T16:31:30.209Z,7.40
2023-03-03T16:34:12.900Z,6.83
2023-03-03T16:37:01.450Z,6.93
2023-03-03T16:39:52.258Z,7.50
2023-03-03T16:42:30.235Z,6.73
2023-03-03T16:45:22.725Z,7.27
2023-03-03T16:48:21.974Z,7.33
2023-03-03T16:51:05.446Z,7.17
2023-03-03T16:53:55.219Z,7.23
2023-03-03T16:56:29.657Z,6.83
2023-03-03T16:59:25.696Z,6.63
2023-03-03T17:02:19.272Z,6.67
2023-03-03T17:04:58.742Z,6.40
2023-03-03T17:07:44.536Z,6.80
2023-03-03T17:10:28.254Z,6.57
2023-03-03T17:13:39.877Z,7.17
2023-03-03T17:16:23.455Z,7.43
2023-03-03T17:19:07.197Z,7.47
2023-03-03T17:21:57.156Z,7.23
2023-03-03T17:24:40.533Z,7.90
2023-03-03T17:27:26.817Z,8.17
2023-03-03T17:30:12.307Z,7.40
2023-03-03T17:33:01.911Z,8.37
2023-03-03T17:35:57.508Z,8.70
2023-03-03T17:38:43.473Z,8.17
2023-03-03T17:41:21.177Z,8.10
2023-03-03T17:44:03.096Z,10.37
2023-03-03T17:46:42.038Z,9.60
2023-03-03T17:50:01.474Z,9.57
2023-03-03T17:53:09.567Z,9.93
2023-03-03T17:55:57.380Z,10.17
2023-03-03T17:59:08.166Z,9.77
2023-03-03T18:02:25.650Z,10.40
2023-03-03T18:05:22.334Z,9.63
2023-03-03T18:08:22.096Z,10.40
2023-03-03T18:11:29.635Z,10.80
2023-03-03T18:14:34.247Z,11.07
2023-03-03T18:17:45.563Z,11.37
2023-03-03T18:20:45.314Z,12.67
2023-03-03T18:23:49.742Z,11.83
2023-03-03T18:26:42.008Z,13.30
2023-03-03T18:29:29.516Z,13.07
2023-03-03T18:32:20.403Z,13.70
2023-03-03T18:34:48.546Z,13.57
2023-03-03T18:37:43.765Z,15.23
2023-03-03T18:40:36.351Z,14.43
2023-03-03T18:43:55.702Z,14.97
2023-03-03T18:46:51.243Z,15.37
2023-03-03T18:49:40.130Z,14.53
2023-03-03T18:52:23.630Z,14.93
2023-03-03T18:55:25.836Z,13.43
2023-03-03T18:58:34.234Z,11.60
2023-03-03T19:01:41.540Z,11.13
2023-03-03T19:04:24.100Z,11.77
2023-03-03T19:07:27.579Z,10.83
2023-03-03T19:10:01.550Z,10.60
2023-03-03T19:12:53.591Z,9.83
2023-03-03T19:16:01.026Z,9.87
2023-03-03T19:18:30.430Z,9.47
2023-03-03T19:21:01.740Z,9.60
2023-03-03T19:23:54.259Z,9.20
2023-03-03T19:26:55.207Z,9.53
2023-03-03T19:29:58.758Z,9.57
2023-03-03T19:33:03.154Z,9.13
2023-03-03T19:35:46.071Z,9.60
2023-03-03T19:38:33.161Z,8.53
2023-03-03T19:41:18.109Z,8.47
2023-03-03T19:43:57.710Z,8.53
2023-03-03T19:46:56.216Z,8.07
2023-03-03T19:49:44.848Z,7.63
2023-03-03T19:52:28.648Z,7.67
2023-03-03T19:55:23.012Z,7.70
2023-03-03T19:58:06.134Z,6.67
2023-03-03T20:00:43.137Z,6.87
2023-03-03T20:04:08.265Z,6.53
2023-03-03T20:06:55.043Z,6.00
2023-03-03T20:09:38.467Z,6.73
2023-03-03T20:12:26.427Z,6.47
2023-03-03T20:15:09.604Z,6.00
2023-03-03T20:17:54.395Z,6.20
2023-03-03T20:20:52.450Z,6.97
2023-03-03T20:23:32.095Z,6.37
2023-03-03T20:26:10.250Z,6.97
2023-03-03T20:29:17.745Z,6.00
2023-03-03T20:31:56.042Z,6.53
2023-03-03T20:34:43.993Z,6.73
2023-03-03T20:37:23.055Z,6.60
2023-03-03T20:40:06.955Z,6.30
2023-03-03T20:42:53.018Z,6.70
2023-03-03T20:45:39.867Z,5.63
2023-03-03T20:48:27.173Z,5.80
2023-03-03T20:51:05.755Z,6.60
2023-03-03T20:53:52.138Z,5.90
2023-03-03T20:56:29.689Z,6.53
2023-03-03T20:59:19.411Z,6.03
2023-03-03T21:02:00.806Z,6.27
2023-03-03T21:04:31.353Z,6.50
2023-03-03T21:07:02.399Z,6.77
2023-03-03T21:09:34.101Z,7.77
2023-03-03T21:12:10.648Z,7.03
2023-03-03T21:14:39.389Z,7.30
2023-03-03T21:17:27.956Z,7.00
2023-03-03T21:19:56.092Z,6.57
2023-03-03T21:22:25.474Z,6.17
2023-03-03T21:24:58.820Z,6.67
2023-03-03T21:27:30.270Z,6.63
2023-03-03T21:30:09.961Z,6.60
2023-03-03T21:32:42.334Z,6.10
2023-03-03T21:35:13.309Z,6.53
2023-03-03T21:37:49.190Z,6.43
2023-03-03T21:40:24.391Z,6.30
2023-03-03T21:42:54.414Z,6.37
2023-03-03T21:45:23.676Z,6.73
2023-03-03T21:47:53.475Z,6.10
2023-03-03T21:50:22.526Z,6.67
2023-03-03T21:52:50.719Z,6.63
2023-03-03T21:55:20.294Z,7.20
2023-03-03T21:57:48.290Z,7.93
2023-03-03T22:00:17.460Z,7.27
2023-03-03T22:02:45.527Z,8.37
2023-03-03T22:08:09.986Z,8.70
2023-03-03T22:10:40.067Z,8.70
2023-03-03T22:13:08.214Z,8.13
2023-03-03T22:15:36.437Z,8.60
2023-03-03T22:18:04.760Z,8.63
2023-03-03T22:20:32.944Z,9.47
2023-03-03T22:23:01.204Z,10.07
2023-03-03T22:25:29.375Z,10.07
2023-03-03T22:27:58.992Z,10.50
2023-03-03T22:30:27.119Z,10.47
2023-03-03T22:32:55.312Z,10.97
2023-03-03T22:35:23.734Z,11.60
2023-03-03T22:37:52.484Z,11.87
2023-03-03T22:40:20.954Z,11.77
2023-03-03T22:42:49.229Z,12.17
2023-03-03T22:45:18.911Z,10.50
2023-03-03T22:47:47.097Z,11.63
2023-03-03T22:50:15.360Z,11.57
2023-03-03T22:52:43.565Z,11.63
2023-03-03T22:55:12.340Z,12.03
2023-03-03T22:57:40.492Z,12.83
2023-03-03T23:00:13.141Z,12.73
2023-03-03T23:02:43.243Z,11.47
2023-03-03T23:05:11.766Z,11.57
2023-03-03T23:07:41.886Z,12.07
2023-03-03T23:10:11.948Z,12.00
2023-03-03T23:12:40.178Z,10.97
2023-03-03T23:15:13.333Z,10.77
2023-03-03T23:17:44.855Z,11.33
2023-03-03T23:20:16.284Z,10.40
2023-03-03T23:22:44.640Z,9.87
2023-03-03T23:25:14.834Z,9.23
2023-03-03T23:27:43.944Z,8.90
2023-03-03T23:30:16.524Z,9.77
2023-03-03T23:32:48.136Z,9.17
2023-03-03T23:35:16.683Z,8.20
2023-03-03T23:37:44.943Z,8.67
2023-03-03T23:40:15.642Z,8.27
2023-03-03T23:42:43.884Z,8.70
2023-03-03T23:45:13.440Z,8.80
2023-03-03T23:47:42.194Z,7.90
2023-03-03T23:50:14.457Z,8.20
2023-03-03T23:52:42.659Z,8.53
2023-03-03T23:55:11.845Z,8.43
2023-03-03T23:57:40.095Z,8.30
